createdAt,value
2023-04-08T00:02:11.495Z,5.30
2023-04-08T00:05:14.342Z,5.31
2023-04-08T00:08:15.998Z,5.26
2023-04-08T00:11:18.947Z,5.24
2023-04-08T00:14:20.534Z,5.23
2023-04-08T00:17:22.188Z,5.24
2023-04-08T00:20:24.213Z,5.19
2023-04-08T00:23:25.828Z,5.19
2023-04-08T00:26:28.917Z,5.23
2023-04-08T00:29:31.019Z,5.34
2023-04-08T00:32:33.108Z,5.36
2023-04-08T00:35:34.874Z,5.38
2023-04-08T00:38:36.479Z,5.27
2023-04-08T00:41:39.701Z,5.20
2023-04-08T00:44:41.314Z,5.26
2023-04-08T00:47:43.899Z,5.27
2023-04-08T00:50:47.095Z,5.31
2023-04-08T00:53:48.735Z,5.33
2023-04-08T00:56:51.972Z,5.29
2023-04-08T00:59:53.792Z,5.35
2023-04-08T01:03:00.504Z,5.28
2023-04-08T01:06:07.114Z,5.17
2023-04-08T01:09:09.344Z,5.12
2023-04-08T01:12:15.974Z,5.22
2023-04-08T01:15:17.829Z,5.25
2023-04-08T01:18:20.962Z,5.28
2023-04-08T01:21:23.755Z,5.33
2023-04-08T01:24:28.223Z,5.22
2023-04-08T01:27:33.305Z,5.21
2023-04-08T01:30:36.734Z,5.20
2023-04-08T01:33:38.574Z,5.17
2023-04-08T01:36:40.868Z,5.03
2023-04-08T01:39:42.959Z,5.05
2023-04-08T01:42:49.744Z,5.08
2023-04-08T01:45:54.672Z,5.06
2023-04-08T01:48:57.659Z,5.05
2023-04-08T01:52:00.732Z,5.03
2023-04-08T01:55:02.561Z,5.07
2023-04-08T01:58:08.300Z,5.08
2023-04-08T02:01:11.526Z,5.12
2023-04-08T02:04:13.665Z,5.06
2023-04-08T02:07:15.787Z,5.01
2023-04-08T02:10:17.659Z,5.00
2023-04-08T02:13:20.652Z,4.97
2023-04-08T02:16:23.968Z,4.95
2023-04-08T02:19:29.488Z,4.81
2023-04-08T02:22:38.173Z,4.78
2023-04-08T02:25:40.725Z,4.84
2023-04-08T02:28:44.728Z,4.82
2023-04-08T02:31:47.050Z,4.75
2023-04-08T02:34:50.363Z,4.78
2023-04-08T02:37:52.430Z,4.75
2023-04-08T02:40:54.408Z,4.69
2023-04-08T02:43:58.671Z,4.63
2023-04-08T02:47:00.334Z,4.68
2023-04-08T02:50:01.936Z,4.69
2023-04-08T02:53:04.049Z,4.64
2023-04-08T02:56:09.904Z,4.60
2023-04-08T02:59:12.982Z,4.53
2023-04-08T03:02:14.665Z,4.44
2023-04-08T03:05:16.966Z,4.41
2023-04-08T03:08:18.611Z,4.43
2023-04-08T03:11:21.565Z,4.46
2023-04-08T03:14:24.661Z,4.45
2023-04-08T03:17:26.479Z,4.43
2023-04-08T03:20:28.182Z,4.50
2023-04-08T03:23:30.078Z,4.51
2023-04-08T03:26:31.774Z,4.45
2023-04-08T03:29:34.784Z,4.45
2023-04-08T03:32:36.538Z,4.44
2023-04-08T03:35:38.924Z,4.52
2023-04-08T03:38:40.855Z,4.53
2023-04-08T03:41:42.513Z,4.52
2023-04-08T03:44:45.560Z,4.56
2023-04-08T03:47:47.433Z,4.48
2023-04-08T03:50:49.192Z,4.40
2023-04-08T03:53:50.731Z,4.34
2023-04-08T03:56:52.426Z,4.35
2023-04-08T03:59:55.595Z,4.28
2023-04-08T04:02:57.253Z,4.22
2023-04-08T04:05:58.841Z,4.26
2023-04-08T04:09:00.507Z,4.29
2023-04-08T04:12:02.390Z,4.19
2023-04-08T04:15:06.312Z,4.15
2023-04-08T04:18:08.562Z,4.19
2023-04-08T04:21:10.655Z,4.23
2023-04-08T04:24:14.267Z,4.20
2023-04-08T04:27:17.671Z,4.22
2023-04-08T04:30:20.709Z,4.23
2023-04-08T04:33:22.390Z,4.27
2023-04-08T04:36:24.294Z,4.32
2023-04-08T04:39:26.376Z,4.28
2023-04-08T04:42:28.046Z,4.35
2023-04-08T04:45:31.709Z,4.33
2023-04-08T04:48:33.320Z,4.46
2023-04-08T04:51:34.996Z,4.45
2023-04-08T04:54:36.810Z,4.39
2023-04-08T04:57:38.575Z,4.40
2023-04-08T05:00:41.657Z,4.34
2023-04-08T05:03:43.291Z,4.29
2023-04-08T05:06:45.312Z,4.32
2023-04-08T05:09:46.942Z,4.27
2023-04-08T05:12:48.714Z,4.28
2023-04-08T05:15:51.767Z,4.26
2023-04-08T05:18:53.433Z,4.26
2023-04-08T05:21:55.515Z,4.29
2023-04-08T05:24:57.121Z,4.31
2023-04-08T05:27:58.806Z,4.34
2023-04-08T05:31:01.890Z,4.24
2023-04-08T05:34:03.632Z,4.23
2023-04-08T05:37:05.270Z,4.32
2023-04-08T05:40:07.572Z,4.33
2023-04-08T05:43:09.138Z,4.31
2023-04-08T05:46:12.223Z,4.25
2023-04-08T05:49:14.029Z,4.25
2023-04-08T05:52:16.672Z,4.21
2023-04-08T05:55:18.321Z,4.20
2023-04-08T06:01:42.380Z,4.20
2023-04-08T06:04:44.387Z,4.15
2023-04-08T06:07:46.424Z,4.25
2023-04-08T06:10:51.124Z,4.24
2023-04-08T06:13:52.915Z,4.18
2023-04-08T06:16:57.337Z,4.14
2023-04-08T06:20:01.151Z,4.22
2023-04-08T06:23:03.166Z,4.19
2023-04-08T06:26:05.360Z,4.17
2023-04-08T06:29:08.066Z,4.21
2023-04-08T06:32:11.489Z,4.22
2023-04-08T06:35:13.163Z,4.27
2023-04-08T06:38:14.844Z,4.38
2023-04-08T06:41:16.507Z,4.39
2023-04-08T06:44:18.280Z,4.45
2023-04-08T06:47:21.462Z,4.46
2023-04-08T06:50:23.156Z,4.55
2023-04-08T06:53:25.018Z,4.51
2023-04-08T06:56:26.733Z,4.50
2023-04-08T06:59:28.416Z,4.41
2023-04-08T07:02:31.685Z,4.34
2023-04-08T07:05:35.641Z,4.29
2023-04-08T07:08:37.649Z,4.31
2023-04-08T07:11:39.371Z,4.36
2023-04-08T07:14:41.130Z,4.41
2023-04-08T07:17:44.122Z,4.45
2023-04-08T07:20:46.516Z,4.50
2023-04-08T07:23:48.131Z,4.48
2023-04-08T07:26:49.805Z,4.55
2023-04-08T07:29:53.219Z,4.61
2023-04-08T07:32:59.315Z,4.53
2023-04-08T07:36:02.316Z,4.55
2023-04-08T07:39:04.028Z,4.69
2023-04-08T07:42:06.159Z,4.74
2023-04-08T07:45:08.376Z,4.77
2023-04-08T07:48:11.421Z,4.68
2023-04-08T07:51:13.302Z,4.75
2023-04-08T07:54:17.531Z,4.86
2023-04-08T07:57:44.570Z,4.92
2023-04-08T08:00:46.568Z,4.85
2023-04-08T08:03:50.104Z,4.81
2023-04-08T08:06:52.059Z,4.70
2023-04-08T08:09:53.704Z,4.70
2023-04-08T08:12:55.494Z,4.70
2023-04-08T08:15:57.271Z,4.62
2023-04-08T08:19:00.567Z,4.73
2023-04-08T08:22:02.172Z,4.73
2023-04-08T08:25:04.590Z,4.76
2023-04-08T08:28:06.506Z,4.74
2023-04-08T08:31:08.777Z,4.83
2023-04-08T08:34:11.857Z,4.88
2023-04-08T08:37:13.658Z,4.87
2023-04-08T08:40:15.959Z,4.90
2023-04-08T08:43:18.775Z,4.81
2023-04-08T08:46:20.439Z,4.76
2023-04-08T08:49:24.182Z,4.93
2023-04-08T08:52:25.975Z,5.04
2023-04-08T08:55:50.260Z,4.94
2023-04-08T08:58:51.761Z,4.86
2023-04-08T09:01:53.570Z,4.87
2023-04-08T09:05:01.376Z,5.03
2023-04-08T09:08:03.106Z,5.12
2023-04-08T09:11:12.497Z,4.99
2023-04-08T09:14:18.087Z,4.93
2023-04-08T09:17:32.287Z,5.09
2023-04-08T09:20:52.350Z,5.01
2023-04-08T09:23:54.855Z,5.12
2023-04-08T09:26:57.258Z,5.21
2023-04-08T09:30:12.757Z,5.26
2023-04-08T09:33:14.293Z,5.24
2023-04-08T09:36:17.527Z,5.40
2023-04-08T09:39:19.517Z,5.54
2023-04-08T09:42:21.402Z,5.66
2023-04-08T09:45:24.632Z,5.63
2023-04-08T09:48:28.198Z,5.66
2023-04-08T09:51:33.582Z,5.79
2023-04-08T09:54:41.147Z,5.72
2023-04-08T09:57:45.112Z,5.57
2023-04-08T10:00:50.762Z,5.55
2023-04-08T10:03:54.453Z,5.65
2023-04-08T10:07:03.506Z,5.77
2023-04-08T10:10:05.954Z,5.78
2023-04-08T10:13:07.846Z,5.85
2023-04-08T10:16:20.979Z,5.97
2023-04-08T10:19:41.949Z,5.95
2023-04-08T10:22:49.223Z,5.89
2023-04-08T10:25:50.921Z,5.80
2023-04-08T10:28:54.991Z,5.74
2023-04-08T10:31:57.817Z,5.76
2023-04-08T10:34:59.487Z,5.75
2023-04-08T10:38:02.775Z,5.76
2023-04-08T10:41:04.440Z,5.66
2023-04-08T10:44:15.428Z,5.75
2023-04-08T10:47:25.209Z,5.72
2023-04-08T10:50:27.154Z,5.66
2023-04-08T10:53:30.970Z,5.75
2023-04-08T10:56:32.690Z,5.82
2023-04-08T10:59:37.841Z,5.82
2023-04-08T11:02:39.711Z,5.82
2023-04-08T11:05:41.724Z,5.95
2023-04-08T11:08:44.892Z,5.97
2023-04-08T11:11:47.373Z,6.14
2023-04-08T11:14:51.684Z,6.19
2023-04-08T11:17:55.069Z,6.00
2023-04-08T11:20:58.943Z,6.27
2023-04-08T11:24:06.251Z,6.44
2023-04-08T11:27:07.934Z,6.34
2023-04-08T11:30:10.619Z,6.35
2023-04-08T11:33:13.835Z,6.30
2023-04-08T11:36:18.022Z,6.28
2023-04-08T11:39:24.183Z,6.37
2023-04-08T11:42:29.077Z,6.37
2023-04-08T11:45:37.906Z,6.42
2023-04-08T11:48:39.706Z,6.48
2023-04-08T11:51:55.090Z,6.32
2023-04-08T11:54:58.018Z,6.37
2023-04-08T11:58:02.189Z,6.49
2023-04-08T12:01:03.832Z,6.55
2023-04-08T12:04:06.911Z,6.56
2023-04-08T12:07:08.713Z,6.50
2023-04-08T12:10:12.397Z,6.51
2023-04-08T12:13:14.042Z,6.56
2023-04-08T12:16:15.675Z,6.54
2023-04-08T12:19:17.508Z,6.53
2023-04-08T12:22:19.776Z,6.58
2023-04-08T12:25:23.070Z,6.58
2023-04-08T12:28:25.088Z,6.55
2023-04-08T12:31:28.478Z,6.63
2023-04-08T12:34:30.336Z,6.58
2023-04-08T12:37:33.245Z,6.51
2023-04-08T12:40:36.305Z,6.47
2023-04-08T12:43:39.060Z,6.52
2023-04-08T12:46:40.879Z,6.57
2023-04-08T12:49:49.211Z,6.63
2023-04-08T12:52:52.043Z,6.72
2023-04-08T12:55:57.413Z,6.68
2023-04-08T12:58:59.913Z,6.62
2023-04-08T13:02:05.258Z,6.69
2023-04-08T13:05:07.135Z,6.76
2023-04-08T13:08:08.854Z,6.78
2023-04-08T13:11:11.857Z,6.85
2023-04-08T13:14:14.082Z,6.89
2023-04-08T13:17:16.096Z,7.01
2023-04-08T13:20:17.872Z,7.02
2023-04-08T13:23:19.550Z,7.09
2023-04-08T13:26:22.514Z,7.03
2023-04-08T13:29:24.353Z,7.02
2023-04-08T13:32:26.106Z,7.04
2023-04-08T13:35:28.083Z,7.15
2023-04-08T13:38:29.824Z,7.30
2023-04-08T13:41:34.085Z,7.32
2023-04-08T13:44:35.708Z,7.32
2023-04-08T13:47:38.107Z,7.31
2023-04-08T13:50:40.731Z,7.35
2023-04-08T13:53:42.197Z,7.36
2023-04-08T13:56:45.559Z,7.25
2023-04-08T13:59:47.232Z,7.30
2023-04-08T14:02:50.265Z,7.16
2023-04-08T14:05:52.391Z,7.02
2023-04-08T14:08:54.387Z,7.08
2023-04-08T14:11:58.187Z,7.11
2023-04-08T14:14:59.795Z,7.10
2023-04-08T14:18:01.748Z,7.12
2023-04-08T14:21:04.097Z,7.24
2023-04-08T14:24:06.549Z,7.31
2023-04-08T14:27:09.599Z,7.41
2023-04-08T14:30:11.445Z,7.44
2023-04-08T14:33:13.180Z,7.50
2023-04-08T14:36:14.807Z,7.61
2023-04-08T14:39:16.584Z,7.64
2023-04-08T14:45:33.385Z,7.39
2023-04-08T14:48:37.679Z,7.43
2023-04-08T14:51:39.677Z,7.42
2023-04-08T14:54:41.715Z,7.29
2023-04-08T14:57:43.482Z,7.35
2023-04-08T15:00:47.812Z,7.38
2023-04-08T15:03:49.542Z,7.45
2023-04-08T15:06:51.641Z,7.53
2023-04-08T15:09:54.395Z,7.60
2023-04-08T15:12:56.190Z,7.65
2023-04-08T15:15:59.217Z,7.76
2023-04-08T15:19:00.717Z,7.75
2023-04-08T15:22:02.268Z,7.70
2023-04-08T15:25:05.152Z,7.68
2023-04-08T15:28:06.818Z,7.68
2023-04-08T15:31:09.940Z,7.62
2023-04-08T15:34:11.417Z,7.61
2023-04-08T15:37:13.368Z,7.65
2023-04-08T15:40:15.086Z,7.65
2023-04-08T15:43:17.907Z,7.65
2023-04-08T15:46:21.457Z,7.67
2023-04-08T15:49:23.176Z,7.66
2023-04-08T15:52:25.928Z,7.65
2023-04-08T15:55:32.850Z,7.55
2023-04-08T15:58:34.709Z,7.54
2023-04-08T16:01:37.814Z,7.55
2023-04-08T16:04:39.534Z,7.44
2023-04-08T16:07:42.265Z,7.31
2023-04-08T16:10:46.080Z,7.25
2023-04-08T16:13:47.707Z,7.20
2023-04-08T16:16:53.109Z,7.09
2023-04-08T16:19:54.628Z,7.05
2023-04-08T16:22:56.379Z,7.13
2023-04-08T16:26:01.702Z,7.15
2023-04-08T16:29:03.746Z,7.16
2023-04-08T16:32:06.699Z,7.19
2023-04-08T16:35:08.949Z,7.18
2023-04-08T16:38:12.208Z,7.09
2023-04-08T16:41:13.968Z,7.09
2023-04-08T16:44:16.093Z,7.07
2023-04-08T16:47:19.005Z,6.98
2023-04-08T16:50:20.679Z,6.98
2023-04-08T16:53:24.054Z,6.96
2023-04-08T16:56:27.213Z,6.97
2023-04-08T16:59:29.354Z,6.94
2023-04-08T17:02:32.517Z,6.96
2023-04-08T17:05:34.249Z,7.00
2023-04-08T17:08:36.448Z,7.01
2023-04-08T17:11:38.550Z,7.01
2023-04-08T17:14:40.668Z,6.93
2023-04-08T17:17:43.813Z,6.92
2023-04-08T17:20:45.452Z,6.86
2023-04-08T17:23:47.053Z,6.82
2023-04-08T17:26:49.401Z,6.80
2023-04-08T17:29:56.431Z,6.78
2023-04-08T17:32:59.335Z,6.75
2023-04-08T17:36:01.523Z,6.72
2023-04-08T17:39:03.266Z,6.69
2023-04-08T17:42:04.899Z,6.65
2023-04-08T17:45:07.375Z,6.60
2023-04-08T17:48:10.463Z,6.59
2023-04-08T17:51:12.089Z,6.49
2023-04-08T17:54:13.981Z,6.50
2023-04-08T17:57:16.108Z,6.45
2023-04-08T18:00:18.293Z,6.43
2023-04-08T18:03:21.570Z,6.38
2023-04-08T18:06:23.307Z,6.36
2023-04-08T18:09:24.921Z,6.38
2023-04-08T18:12:27.788Z,6.35
2023-04-08T18:15:30.749Z,6.33
2023-04-08T18:18:36.593Z,6.30
2023-04-08T18:21:38.214Z,6.30
2023-04-08T18:24:39.800Z,6.30
2023-04-08T18:27:41.362Z,6.29
2023-04-08T18:30:43.341Z,6.30
2023-04-08T18:33:46.522Z,6.27
2023-04-08T18:36:48.223Z,6.08
2023-04-08T18:39:50.075Z,5.95
2023-04-08T18:42:52.077Z,5.84
2023-04-08T18:45:53.592Z,5.77
2023-04-08T18:48:57.181Z,5.72
2023-04-08T18:52:03.022Z,5.62
2023-04-08T18:55:05.805Z,5.55
2023-04-08T18:58:07.827Z,5.50
2023-04-08T19:01:09.552Z,5.47
2023-04-08T19:04:13.256Z,5.42
2023-04-08T19:07:16.801Z,5.39
2023-04-08T19:10:18.394Z,5.32
2023-04-08T19:13:22.222Z,5.27
2023-04-08T19:16:24.006Z,5.22
2023-04-08T19:19:27.067Z,5.21
2023-04-08T19:22:28.670Z,5.14
2023-04-08T19:25:30.896Z,5.08
2023-04-08T19:28:33.377Z,5.00
2023-04-08T19:31:35.009Z,4.99
2023-04-08T19:34:38.686Z,4.98
2023-04-08T19:37:40.540Z,4.98
2023-04-08T19:40:45.350Z,4.99
2023-04-08T19:43:47.747Z,4.99
2023-04-08T19:46:49.606Z,5.00
2023-04-08T19:49:52.682Z,5.02
2023-04-08T19:52:54.502Z,5.03
2023-04-08T19:56:00.119Z,5.04
2023-04-08T19:59:02.046Z,5.00
2023-04-08T20:02:04.222Z,4.98
2023-04-08T20:05:07.883Z,4.94
2023-04-08T20:08:09.527Z,4.88
2023-04-08T20:11:11.226Z,4.88
2023-04-08T20:14:13.243Z,4.84
2023-04-08T20:17:16.432Z,4.78
2023-04-08T20:20:19.679Z,4.74
2023-04-08T20:23:21.925Z,4.72
2023-04-08T20:26:23.528Z,4.68
2023-04-08T20:29:25.131Z,4.57
2023-04-08T20:32:27.947Z,4.47
2023-04-08T20:35:34.022Z,4.47
2023-04-08T20:38:36.974Z,4.50
2023-04-08T20:41:38.763Z,4.51
2023-04-08T20:44:40.783Z,4.48
2023-04-08T20:47:44.598Z,4.46
2023-04-08T20:50:49.294Z,4.45
2023-04-08T20:53:50.794Z,4.47
2023-04-08T20:56:52.488Z,4.45
2023-04-08T20:59:54.122Z,4.42
2023-04-08T21:02:55.863Z,4.36
2023-04-08T21:05:58.941Z,4.32
2023-04-08T21:09:00.951Z,4.29
2023-04-08T21:12:03.135Z,4.27
2023-04-08T21:15:05.134Z,4.29
2023-04-08T21:18:07.343Z,4.26
2023-04-08T21:21:19.606Z,4.29
2023-04-08T21:24:21.507Z,4.29
2023-04-08T21:27:23.122Z,4.27
2023-04-08T21:30:24.828Z,4.19
2023-04-08T21:33:26.691Z,4.14
2023-04-08T21:36:30.822Z,4.13
2023-04-08T21:39:32.346Z,4.12
2023-04-08T21:42:33.969Z,4.13
2023-04-08T21:45:35.738Z,4.16
2023-04-08T21:48:37.522Z,4.15
2023-04-08T21:51:41.031Z,4.19
2023-04-08T21:54:43.777Z,4.21
2023-04-08T21:57:45.760Z,4.18
2023-04-08T22:00:47.523Z,4.17
2023-04-08T22:03:49.802Z,4.15
2023-04-08T22:06:52.905Z,4.13
2023-04-08T22:09:54.629Z,4.14
2023-04-08T22:12:56.543Z,4.11
2023-04-08T22:15:58.288Z,4.11
2023-04-08T22:18:59.965Z,4.08
2023-04-08T22:22:02.963Z,4.06
2023-04-08T22:25:04.911Z,4.05
2023-04-08T22:28:06.896Z,4.02
2023-04-08T22:31:09.076Z,4.02
2023-04-08T22:34:11.500Z,4.04
2023-04-08T22:37:15.033Z,4.10
2023-04-08T22:40:16.871Z,4.15
2023-04-08T22:43:18.711Z,4.22
2023-04-08T22:46:22.312Z,4.22
2023-04-08T22:49:23.851Z,4.23
2023-04-08T22:52:27.042Z,4.19
2023-04-08T22:55:28.794Z,4.15
2023-04-08T22:58:31.220Z,4.15
2023-04-08T23:01:41.018Z,4.15
2023-04-08T23:04:42.586Z,4.20
2023-04-08T23:07:45.686Z,4.25
2023-04-08T23:10:48.367Z,4.32
2023-04-08T23:13:49.998Z,4.34
2023-04-08T23:16:54.150Z,4.37
2023-04-08T23:19:55.771Z,4.35
2023-04-08T23:22:58.993Z,4.30
2023-04-08T23:26:00.566Z,4.27
2023-04-08T23:29:02.134Z,4.25
2023-04-08T23:32:03.850Z,4.22
2023-04-08T23:35:05.804Z,4.17
2023-04-08T23:38:09.000Z,4.16
2023-04-08T23:41:14.405Z,4.12
2023-04-08T23:44:16.021Z,4.07
2023-04-08T23:47:17.621Z,4.05
2023-04-08T23:50:20.313Z,4.02
2023-04-08T23:53:23.179Z,4.01
2023-04-08T23:56:24.803Z,3.98
2023-04-08T23:59:26.449Z,3.93
